createdAt,value
2022-09-28T00:01:23.529Z,0.80
2022-09-28T00:05:27.175Z,0.88
2022-09-28T00:09:28.795Z,0.77
2022-09-28T00:13:31.784Z,1.10
2022-09-28T00:17:33.526Z,1.90
2022-09-28T00:21:36.563Z,1.38
2022-09-28T00:25:38.211Z,1.13
2022-09-28T00:29:39.795Z,0.90
2022-09-28T00:33:41.989Z,0.93
2022-09-28T00:37:43.599Z,1.00
2022-09-28T00:41:45.990Z,0.95
2022-09-28T00:45:55.850Z,0.85
2022-09-28T00:50:08.459Z,0.80
2022-09-28T00:54:10.700Z,1.00
2022-09-28T00:58:20.038Z,0.95
2022-09-28T01:02:21.851Z,1.17
2022-09-28T01:06:27.643Z,0.95
2022-09-28T01:10:31.060Z,0.90
2022-09-28T01:14:32.998Z,1.00
2022-09-28T01:18:57.927Z,1.08
2022-09-28T01:23:13.161Z,0.95
2022-09-28T01:27:18.109Z,1.40
2022-09-28T01:31:20.805Z,1.10
2022-09-28T01:35:28.637Z,1.20
2022-09-28T01:43:39.500Z,1.30
2022-09-28T01:47:41.611Z,1.00
2022-09-28T01:51:44.915Z,1.42
2022-09-28T01:55:51.133Z,1.90
2022-09-28T02:00:00.435Z,1.40
2022-09-28T02:04:12.459Z,1.40
2022-09-28T02:08:40.825Z,1.30
2022-09-28T02:13:01.556Z,1.25
2022-09-28T02:17:03.271Z,1.25
2022-09-28T02:21:13.444Z,1.38
2022-09-28T02:25:26.968Z,1.50
2022-09-28T02:29:28.763Z,1.63
2022-09-28T02:33:41.335Z,1.23
2022-09-28T02:37:43.787Z,1.13
2022-09-28T02:42:05.880Z,1.10
2022-09-28T02:46:27.239Z,1.75
2022-09-28T02:50:42.861Z,0.95
2022-09-28T02:55:19.995Z,1.20
2022-09-28T02:59:43.134Z,1.33
2022-09-28T03:03:49.655Z,1.13
2022-09-28T03:08:02.363Z,1.38
2022-09-28T03:12:07.795Z,1.45
2022-09-28T03:16:15.516Z,1.35
2022-09-28T03:20:17.555Z,1.23
2022-09-28T03:24:19.086Z,1.23
2022-09-28T03:28:21.757Z,1.45
2022-09-28T03:32:23.234Z,1.30
2022-09-28T03:36:24.813Z,1.98
2022-09-28T03:40:27.764Z,1.35
2022-09-28T03:44:29.435Z,0.90
2022-09-28T03:48:34.126Z,1.67
2022-09-28T03:52:35.705Z,1.13
2022-09-28T03:56:37.282Z,1.15
2022-09-28T04:00:39.154Z,1.40
2022-09-28T04:04:40.609Z,1.33
2022-09-28T04:08:43.608Z,1.27
2022-09-28T04:12:45.942Z,1.70
2022-09-28T04:16:48.352Z,1.40
2022-09-28T04:21:00.907Z,1.10
2022-09-28T04:25:02.314Z,1.33
2022-09-28T04:29:19.817Z,1.00
2022-09-28T04:37:22.718Z,1.05
2022-09-28T04:41:25.381Z,1.23
2022-09-28T04:45:27.183Z,0.90
2022-09-28T04:49:28.677Z,1.13
2022-09-28T04:53:30.805Z,1.00
2022-09-28T04:57:35.795Z,1.33
2022-09-28T05:01:37.741Z,1.05
2022-09-28T05:05:47.123Z,1.20
2022-09-28T05:09:50.584Z,1.38
2022-09-28T05:13:52.178Z,1.27
2022-09-28T05:17:53.627Z,1.42
2022-09-28T05:21:57.987Z,3.42
2022-09-28T05:26:02.139Z,13.63
2022-09-28T05:30:04.547Z,3.90
2022-09-28T05:34:06.069Z,3.03
2022-09-28T05:38:07.512Z,2.00
2022-09-28T05:42:08.896Z,1.77
2022-09-28T05:46:10.365Z,1.55
2022-09-28T05:50:12.011Z,2.70
2022-09-28T05:54:13.482Z,2.63
2022-09-28T05:58:15.266Z,2.75
2022-09-28T06:02:16.953Z,1.83
2022-09-28T06:06:18.466Z,1.63
2022-09-28T06:10:19.866Z,1.85
2022-09-28T06:14:21.253Z,2.60
2022-09-28T06:18:22.688Z,1.73
2022-09-28T06:22:24.147Z,2.17
2022-09-28T06:26:25.972Z,2.63
2022-09-28T06:30:28.941Z,2.15
2022-09-28T06:34:30.428Z,2.30
2022-09-28T06:38:31.865Z,2.70
2022-09-28T06:42:33.521Z,2.25
2022-09-28T06:46:35.719Z,2.38
2022-09-28T06:50:40.856Z,2.42
2022-09-28T06:54:42.266Z,2.35
2022-09-28T06:58:43.698Z,3.25
2022-09-28T07:02:45.488Z,2.92
2022-09-28T07:06:48.054Z,3.42
2022-09-28T07:10:50.120Z,2.92
2022-09-28T07:14:56.361Z,2.90
2022-09-28T07:18:58.037Z,2.97
2022-09-28T07:23:11.828Z,1.80
2022-09-28T07:27:18.027Z,1.83
2022-09-28T07:31:19.694Z,2.03
2022-09-28T07:35:22.301Z,2.25
2022-09-28T07:39:23.738Z,1.80
2022-09-28T07:43:25.286Z,2.13
2022-09-28T07:47:29.763Z,2.30
2022-09-28T07:51:33.448Z,2.08
2022-09-28T07:55:35.172Z,2.05
2022-09-28T07:59:36.998Z,2.55
2022-09-28T08:03:39.998Z,2.38
2022-09-28T08:07:43.060Z,2.30
2022-09-28T08:11:45.031Z,1.90
2022-09-28T08:15:50.260Z,1.58
2022-09-28T08:20:18.004Z,1.70
2022-09-28T08:24:20.157Z,2.00
2022-09-28T08:28:23.253Z,1.70
2022-09-28T08:32:24.915Z,1.70
2022-09-28T08:36:26.404Z,1.75
2022-09-28T08:40:28.175Z,1.65
2022-09-28T08:44:41.044Z,2.15
2022-09-28T08:49:13.488Z,2.05
2022-09-28T08:53:28.054Z,1.27
2022-09-28T08:57:49.620Z,1.75
2022-09-28T09:01:59.125Z,1.67
2022-09-28T09:06:16.388Z,1.70
2022-09-28T09:10:30.267Z,1.75
2022-09-28T09:14:44.782Z,1.88
2022-09-28T09:18:55.973Z,2.03
2022-09-28T09:23:02.051Z,2.00
2022-09-28T09:27:41.363Z,1.98
2022-09-28T09:32:05.090Z,2.20
2022-09-28T09:36:28.800Z,2.30
2022-09-28T09:40:56.970Z,2.70
2022-09-28T09:45:23.460Z,2.45
2022-09-28T09:49:29.316Z,2.95
2022-09-28T09:53:40.115Z,2.13
2022-09-28T09:57:50.943Z,2.78
2022-09-28T10:01:53.435Z,2.50
2022-09-28T10:05:59.458Z,2.65
2022-09-28T10:10:02.711Z,2.85
2022-09-28T10:14:06.511Z,1.95
2022-09-28T10:18:12.515Z,2.13
2022-09-28T10:22:18.116Z,3.20
2022-09-28T10:26:25.417Z,1.83
2022-09-28T10:30:27.546Z,1.83
2022-09-28T10:34:29.994Z,2.10
2022-09-28T10:38:32.232Z,1.95
2022-09-28T10:42:34.911Z,2.00
2022-09-28T10:46:38.575Z,2.80
2022-09-28T10:50:40.971Z,1.77
2022-09-28T10:54:53.373Z,1.75
2022-09-28T10:58:55.132Z,2.40
2022-09-28T11:02:56.882Z,0.98
2022-09-28T11:07:00.938Z,1.60
2022-09-28T11:11:10.872Z,1.38
2022-09-28T11:15:18.623Z,1.30
2022-09-28T11:19:20.826Z,2.40
2022-09-28T11:23:27.235Z,1.67
2022-09-28T11:27:28.863Z,1.50
2022-09-28T11:31:31.659Z,1.67
2022-09-28T11:35:38.400Z,2.10
2022-09-28T11:40:11.458Z,1.35
2022-09-28T11:44:38.362Z,2.22
2022-09-28T11:48:44.314Z,2.33
2022-09-28T11:53:00.628Z,1.17
2022-09-28T11:57:03.872Z,1.02
2022-09-28T12:01:35.542Z,1.60
2022-09-28T12:05:40.774Z,1.52
2022-09-28T12:10:10.980Z,1.35
2022-09-28T12:14:20.550Z,1.10
2022-09-28T12:18:57.571Z,1.00
2022-09-28T12:23:05.386Z,1.30
2022-09-28T12:31:34.776Z,1.30
2022-09-28T12:35:48.759Z,1.63
2022-09-28T12:40:09.201Z,1.27
2022-09-28T12:44:29.870Z,1.50
2022-09-28T12:48:56.659Z,1.50
2022-09-28T12:53:33.963Z,1.50
2022-09-28T12:57:46.085Z,1.17
2022-09-28T13:02:25.155Z,1.38
2022-09-28T13:06:51.586Z,1.10
2022-09-28T13:11:07.832Z,1.00
2022-09-28T13:15:32.257Z,1.15
2022-09-28T13:19:58.463Z,1.20
2022-09-28T13:24:20.722Z,0.77
2022-09-28T13:28:27.251Z,1.60
2022-09-28T13:32:31.522Z,1.15
2022-09-28T13:36:33.065Z,1.02
2022-09-28T13:41:10.075Z,1.35
2022-09-28T13:45:20.791Z,1.02
2022-09-28T13:49:50.935Z,0.90
2022-09-28T13:54:16.085Z,0.98
2022-09-28T13:58:31.144Z,1.30
2022-09-28T14:02:40.069Z,1.50
2022-09-28T14:06:47.487Z,0.85
2022-09-28T14:10:52.153Z,1.23
2022-09-28T14:14:54.168Z,1.08
2022-09-28T14:19:03.431Z,0.80
2022-09-28T14:23:33.199Z,1.20
2022-09-28T14:27:56.630Z,0.82
2022-09-28T14:32:10.689Z,1.10
2022-09-28T14:36:59.647Z,1.45
2022-09-28T14:41:16.095Z,1.70
2022-09-28T14:45:19.555Z,1.17
2022-09-28T14:49:23.497Z,0.93
2022-09-28T14:53:25.227Z,1.00
2022-09-28T14:57:29.046Z,1.17
2022-09-28T15:01:30.905Z,1.33
2022-09-28T15:05:49.679Z,0.80
2022-09-28T15:09:53.902Z,1.70
2022-09-28T15:14:07.061Z,1.45
2022-09-28T15:18:18.799Z,0.77
2022-09-28T15:22:20.956Z,0.80
2022-09-28T15:26:30.993Z,1.08
2022-09-28T15:30:34.408Z,0.90
2022-09-28T15:34:52.202Z,1.15
2022-09-28T15:39:01.399Z,1.70
2022-09-28T15:43:20.034Z,1.33
2022-09-28T15:47:26.829Z,1.10
2022-09-28T15:51:29.290Z,1.00
2022-09-28T15:55:32.984Z,1.10
2022-09-28T15:59:35.101Z,1.35
2022-09-28T16:03:36.541Z,0.90
2022-09-28T16:07:38.831Z,0.80
2022-09-28T16:11:41.020Z,1.00
2022-09-28T16:15:42.763Z,1.10
2022-09-28T16:19:48.757Z,0.82
2022-09-28T16:23:51.659Z,1.30
2022-09-28T16:27:55.362Z,1.27
2022-09-28T16:31:56.711Z,1.35
2022-09-28T16:36:02.477Z,1.38
2022-09-28T16:40:05.110Z,1.10
2022-09-28T16:44:17.073Z,2.25
2022-09-28T16:48:19.365Z,1.20
2022-09-28T16:52:40.733Z,1.20
2022-09-28T16:56:42.522Z,1.15
2022-09-28T17:00:43.965Z,1.50
2022-09-28T17:04:47.700Z,1.23
2022-09-28T17:08:50.501Z,1.70
2022-09-28T17:12:52.646Z,2.50
2022-09-28T17:17:12.710Z,1.75
2022-09-28T17:21:21.174Z,2.00
2022-09-28T17:25:24.568Z,2.47
2022-09-28T17:29:26.517Z,1.98
2022-09-28T17:33:28.646Z,1.98
2022-09-28T17:37:30.283Z,2.10
2022-09-28T17:41:32.406Z,2.40
2022-09-28T17:45:35.885Z,2.65
2022-09-28T17:49:38.959Z,2.40
2022-09-28T17:53:40.512Z,2.95
2022-09-28T17:57:41.959Z,3.25
2022-09-28T18:01:43.542Z,2.60
2022-09-28T18:05:45.695Z,3.42
2022-09-28T18:09:47.155Z,2.45
2022-09-28T18:13:48.545Z,3.85
2022-09-28T18:17:49.934Z,4.30
2022-09-28T18:21:52.304Z,4.55
2022-09-28T18:25:53.951Z,3.28
2022-09-28T18:29:55.667Z,3.03
2022-09-28T18:34:00.323Z,3.60
2022-09-28T18:38:04.056Z,3.60
2022-09-28T18:42:05.865Z,3.13
2022-09-28T18:46:09.352Z,3.67
2022-09-28T18:50:12.928Z,3.22
2022-09-28T18:54:15.371Z,3.13
2022-09-28T18:58:16.935Z,3.03
2022-09-28T19:02:18.429Z,3.38
2022-09-28T19:06:20.087Z,2.97
2022-09-28T19:10:21.655Z,3.47
2022-09-28T19:14:23.137Z,2.88
2022-09-28T19:18:24.638Z,4.97
2022-09-28T19:22:26.264Z,3.60
2022-09-28T19:26:28.914Z,3.60
2022-09-28T19:30:30.343Z,4.65
2022-09-28T19:34:31.973Z,3.30
2022-09-28T19:38:35.640Z,3.33
2022-09-28T19:42:37.248Z,3.88
2022-09-28T19:46:40.726Z,3.60
2022-09-28T19:50:42.223Z,3.50
2022-09-28T19:54:58.334Z,3.50
2022-09-28T19:59:00.993Z,3.63
2022-09-28T20:03:02.456Z,3.70
2022-09-28T20:07:04.934Z,3.92
2022-09-28T20:11:06.400Z,3.50
2022-09-28T20:15:10.278Z,3.90
2022-09-28T20:19:12.234Z,5.90
2022-09-28T20:23:13.764Z,4.10
2022-09-28T20:27:15.139Z,3.15
2022-09-28T20:31:22.087Z,4.10
2022-09-28T20:35:32.755Z,3.80
2022-09-28T20:39:34.576Z,3.70
2022-09-28T20:43:36.228Z,4.03
2022-09-28T20:47:37.698Z,3.45
2022-09-28T20:51:39.101Z,3.83
2022-09-28T20:55:40.680Z,3.60
2022-09-28T20:59:42.125Z,4.00
2022-09-28T21:03:48.200Z,4.38
2022-09-28T21:07:49.621Z,3.53
2022-09-28T21:11:51.064Z,5.43
2022-09-28T21:15:52.846Z,3.67
2022-09-28T21:19:54.467Z,4.15
2022-09-28T21:23:57.010Z,3.70
2022-09-28T21:27:58.431Z,4.38
2022-09-28T21:32:00.401Z,4.78
2022-09-28T21:36:03.868Z,3.88
2022-09-28T21:40:09.563Z,3.42
2022-09-28T21:44:11.232Z,4.15
2022-09-28T21:48:12.892Z,3.83
2022-09-28T21:52:14.353Z,4.25
2022-09-28T21:56:16.487Z,4.10
2022-09-28T22:00:23.324Z,3.80
2022-09-28T22:04:24.771Z,4.32
2022-09-28T22:08:26.523Z,4.63
2022-09-28T22:12:31.075Z,4.25
2022-09-28T22:16:32.945Z,3.85
2022-09-28T22:20:34.372Z,4.75
2022-09-28T22:24:35.801Z,4.60
2022-09-28T22:28:38.331Z,4.20
2022-09-28T22:32:39.742Z,3.83
2022-09-28T22:36:42.597Z,4.20
2022-09-28T22:40:51.480Z,4.18
2022-09-28T22:44:53.157Z,4.05
2022-09-28T22:48:56.334Z,3.70
2022-09-28T22:52:57.785Z,4.55
2022-09-28T22:56:59.164Z,3.83
2022-09-28T23:01:14.192Z,4.22
2022-09-28T23:05:17.187Z,4.38
2022-09-28T23:09:20.558Z,3.75
2022-09-28T23:13:22.364Z,4.28
2022-09-28T23:17:23.782Z,4.35
2022-09-28T23:21:26.979Z,4.03
2022-09-28T23:25:29.070Z,3.67
2022-09-28T23:29:30.440Z,4.22
2022-09-28T23:33:31.864Z,3.75
2022-09-28T23:37:33.592Z,4.35
2022-09-28T23:41:35.035Z,3.42
2022-09-28T23:45:36.400Z,3.58
2022-09-28T23:49:37.955Z,4.65
2022-09-28T23:53:39.908Z,3.88
2022-09-28T23:57:43.708Z,3.03
